sensor_id;sensor_type;location;lat;lon;timestamp;P1;durP1;ratioP1;P2;durP2;ratioP2
52798;SDS011;38667;42.872;74.622;2022-12-18T00:00:33;102.23;;;43.57;;
52798;SDS011;38667;42.872;74.622;2022-12-18T00:03:07;96.83;;;41.57;;
52798;SDS011;38667;42.872;74.622;2022-12-18T00:05:33;102.67;;;41.87;;
52798;SDS011;38667;42.872;74.622;2022-12-18T00:07:59;110.17;;;42.60;;
52798;SDS011;38667;42.872;74.622;2022-12-18T00:10:26;113.17;;;49.33;;
52798;SDS011;38667;42.872;74.622;2022-12-18T00:12:53;109.97;;;45.60;;
52798;SDS011;38667;42.872;74.622;2022-12-18T00:15:19;88.47;;;39.27;;
52798;SDS011;38667;42.872;74.622;2022-12-18T00:17:46;83.20;;;37.67;;
52798;SDS011;38667;42.872;74.622;2022-12-18T00:20:15;86.30;;;37.53;;
52798;SDS011;38667;42.872;74.622;2022-12-18T00:22:41;84.87;;;39.23;;
52798;SDS011;38667;42.872;74.622;2022-12-18T00:25:08;82.77;;;35.33;;
52798;SDS011;38667;42.872;74.622;2022-12-18T00:27:34;81.07;;;35.63;;
52798;SDS011;38667;42.872;74.622;2022-12-18T00:30:00;77.27;;;35.57;;
52798;SDS011;38667;42.872;74.622;2022-12-18T00:32:27;88.07;;;38.80;;
52798;SDS011;38667;42.872;74.622;2022-12-18T00:34:53;142.60;;;60.53;;
52798;SDS011;38667;42.872;74.622;2022-12-18T00:37:21;186.10;;;73.10;;
52798;SDS011;38667;42.872;74.622;2022-12-18T00:39:48;289.03;;;95.27;;
52798;SDS011;38667;42.872;74.622;2022-12-18T00:42:14;231.67;;;81.67;;
52798;SDS011;38667;42.872;74.622;2022-12-18T00:44:40;249.43;;;86.50;;
52798;SDS011;38667;42.872;74.622;2022-12-18T00:47:06;301.13;;;96.63;;
52798;SDS011;38667;42.872;74.622;2022-12-18T00:49:33;209.07;;;82.43;;
52798;SDS011;38667;42.872;74.622;2022-12-18T00:51:59;191.10;;;78.17;;
52798;SDS011;38667;42.872;74.622;2022-12-18T00:54:27;156.93;;;66.53;;
52798;SDS011;38667;42.872;74.622;2022-12-18T00:56:53;157.80;;;66.27;;
52798;SDS011;38667;42.872;74.622;2022-12-18T00:59:20;173.80;;;71.17;;
52798;SDS011;38667;42.872;74.622;2022-12-18T01:01:46;169.90;;;73.17;;
52798;SDS011;38667;42.872;74.622;2022-12-18T01:04:13;186.43;;;78.03;;
52798;SDS011;38667;42.872;74.622;2022-12-18T01:06:40;197.03;;;81.50;;
52798;SDS011;38667;42.872;74.622;2022-12-18T01:09:06;202.80;;;85.00;;
52798;SDS011;38667;42.872;74.622;2022-12-18T01:11:34;220.53;;;88.47;;
52798;SDS011;38667;42.872;74.622;2022-12-18T01:14:00;233.57;;;94.97;;
52798;SDS011;38667;42.872;74.622;2022-12-18T01:16:26;245.63;;;100.30;;
52798;SDS011;38667;42.872;74.622;2022-12-18T01:18:53;257.63;;;103.57;;
52798;SDS011;38667;42.872;74.622;2022-12-18T01:21:20;283.00;;;108.50;;
52798;SDS011;38667;42.872;74.622;2022-12-18T01:23:47;271.33;;;109.20;;
52798;SDS011;38667;42.872;74.622;2022-12-18T01:26:16;267.60;;;108.73;;
52798;SDS011;38667;42.872;74.622;2022-12-18T01:28:44;260.57;;;105.73;;
52798;SDS011;38667;42.872;74.622;2022-12-18T01:31:15;253.83;;;104.77;;
52798;SDS011;38667;42.872;74.622;2022-12-18T01:33:43;250.03;;;102.50;;
52798;SDS011;38667;42.872;74.622;2022-12-18T01:36:14;272.20;;;109.13;;
52798;SDS011;38667;42.872;74.622;2022-12-18T01:38:41;260.40;;;106.10;;
52798;SDS011;38667;42.872;74.622;2022-12-18T01:41:08;259.80;;;106.17;;
52798;SDS011;38667;42.872;74.622;2022-12-18T01:43:46;250.43;;;101.83;;
52798;SDS011;38667;42.872;74.622;2022-12-18T01:46:16;234.37;;;94.13;;
52798;SDS011;38667;42.872;74.622;2022-12-18T01:48:43;221.10;;;91.63;;
52798;SDS011;38667;42.872;74.622;2022-12-18T01:51:12;243.50;;;97.80;;
52798;SDS011;38667;42.872;74.622;2022-12-18T01:53:39;240.60;;;97.00;;
52798;SDS011;38667;42.872;74.622;2022-12-18T01:56:11;220.17;;;92.57;;
52798;SDS011;38667;42.872;74.622;2022-12-18T01:58:41;226.80;;;94.50;;
52798;SDS011;38667;42.872;74.622;2022-12-18T02:01:16;225.07;;;90.13;;
52798;SDS011;38667;42.872;74.622;2022-12-18T02:03:43;216.17;;;91.17;;
52798;SDS011;38667;42.872;74.622;2022-12-18T02:06:12;210.53;;;84.73;;
52798;SDS011;38667;42.872;74.622;2022-12-18T02:08:42;187.20;;;84.03;;
52798;SDS011;38667;42.872;74.622;2022-12-18T02:11:17;280.30;;;102.57;;
52798;SDS011;38667;42.872;74.622;2022-12-18T02:13:53;336.30;;;120.37;;
52798;SDS011;38667;42.872;74.622;2022-12-18T02:16:24;347.77;;;120.67;;
52798;SDS011;38667;42.872;74.622;2022-12-18T02:18:55;330.27;;;122.10;;
52798;SDS011;38667;42.872;74.622;2022-12-18T02:21:25;378.33;;;143.60;;
52798;SDS011;38667;42.872;74.622;2022-12-18T02:24:02;302.47;;;124.87;;
52798;SDS011;38667;42.872;74.622;2022-12-18T02:26:41;252.90;;;103.30;;
52798;SDS011;38667;42.872;74.622;2022-12-18T02:29:12;221.00;;;93.93;;
52798;SDS011;38667;42.872;74.622;2022-12-18T02:31:43;228.70;;;98.77;;
52798;SDS011;38667;42.872;74.622;2022-12-18T02:34:12;248.30;;;112.67;;
52798;SDS011;38667;42.872;74.622;2022-12-18T02:36:40;281.63;;;121.40;;
52798;SDS011;38667;42.872;74.622;2022-12-18T02:39:09;275.07;;;117.93;;
52798;SDS011;38667;42.872;74.622;2022-12-18T02:41:37;255.27;;;107.70;;
52798;SDS011;38667;42.872;74.622;2022-12-18T02:44:08;264.27;;;111.07;;
52798;SDS011;38667;42.872;74.622;2022-12-18T02:46:36;345.47;;;131.47;;
52798;SDS011;38667;42.872;74.622;2022-12-18T02:49:08;297.70;;;119.70;;
52798;SDS011;38667;42.872;74.622;2022-12-18T02:51:46;301.37;;;116.80;;
52798;SDS011;38667;42.872;74.622;2022-12-18T02:54:19;308.73;;;120.10;;
52798;SDS011;38667;42.872;74.622;2022-12-18T02:56:52;310.50;;;124.70;;
52798;SDS011;38667;42.872;74.622;2022-12-18T02:59:23;322.47;;;128.57;;
52798;SDS011;38667;42.872;74.622;2022-12-18T03:01:57;287.53;;;121.10;;
52798;SDS011;38667;42.872;74.622;2022-12-18T03:04:30;258.60;;;110.10;;
52798;SDS011;38667;42.872;74.622;2022-12-18T03:07:02;265.50;;;110.17;;
52798;SDS011;38667;42.872;74.622;2022-12-18T03:09:34;270.23;;;116.37;;
52798;SDS011;38667;42.872;74.622;2022-12-18T03:12:04;255.07;;;117.17;;
52798;SDS011;38667;42.872;74.622;2022-12-18T03:14:34;282.70;;;122.03;;
52798;SDS011;38667;42.872;74.622;2022-12-18T03:17:03;283.37;;;127.37;;
52798;SDS011;38667;42.872;74.622;2022-12-18T03:19:35;276.17;;;120.17;;
52798;SDS011;38667;42.872;74.622;2022-12-18T03:22:02;210.03;;;93.17;;
52798;SDS011;38667;42.872;74.622;2022-12-18T03:24:30;241.60;;;106.57;;
52798;SDS011;38667;42.872;74.622;2022-12-18T03:26:59;217.17;;;99.17;;
52798;SDS011;38667;42.872;74.622;2022-12-18T03:29:27;202.10;;;87.13;;
52798;SDS011;38667;42.872;74.622;2022-12-18T03:32:01;216.53;;;94.43;;
52798;SDS011;38667;42.872;74.622;2022-12-18T03:34:33;229.67;;;96.73;;
52798;SDS011;38667;42.872;74.622;2022-12-18T03:37:01;217.23;;;97.27;;
52798;SDS011;38667;42.872;74.622;2022-12-18T03:39:28;225.57;;;95.90;;
52798;SDS011;38667;42.872;74.622;2022-12-18T03:41:55;227.87;;;99.50;;
52798;SDS011;38667;42.872;74.622;2022-12-18T03:44:28;257.60;;;108.13;;
52798;SDS011;38667;42.872;74.622;2022-12-18T03:47:03;235.73;;;106.30;;
52798;SDS011;38667;42.872;74.622;2022-12-18T03:49:33;243.23;;;104.17;;
52798;SDS011;38667;42.872;74.622;2022-12-18T03:52:05;243.20;;;104.53;;
52798;SDS011;38667;42.872;74.622;2022-12-18T03:54:34;241.47;;;102.67;;
52798;SDS011;38667;42.872;74.622;2022-12-18T03:57:03;246.93;;;100.77;;
52798;SDS011;38667;42.872;74.622;2022-12-18T03:59:32;230.30;;;100.87;;
52798;SDS011;38667;42.872;74.622;2022-12-18T04:02:02;245.83;;;106.27;;
52798;SDS011;38667;42.872;74.622;2022-12-18T04:04:31;237.53;;;103.87;;
52798;SDS011;38667;42.872;74.622;2022-12-18T04:06:58;243.80;;;105.80;;
52798;SDS011;38667;42.872;74.622;2022-12-18T04:09:25;246.63;;;107.60;;
52798;SDS011;38667;42.872;74.622;2022-12-18T04:11:52;268.30;;;113.10;;
52798;SDS011;38667;42.872;74.622;2022-12-18T04:14:18;329.07;;;134.63;;
52798;SDS011;38667;42.872;74.622;2022-12-18T04:16:45;302.77;;;126.13;;
52798;SDS011;38667;42.872;74.622;2022-12-18T04:19:13;259.47;;;114.63;;
52798;SDS011;38667;42.872;74.622;2022-12-18T04:21:39;227.73;;;97.07;;
52798;SDS011;38667;42.872;74.622;2022-12-18T04:24:06;220.50;;;92.50;;
52798;SDS011;38667;42.872;74.622;2022-12-18T04:26:32;207.53;;;88.47;;
52798;SDS011;38667;42.872;74.622;2022-12-18T04:28:59;208.90;;;87.40;;
52798;SDS011;38667;42.872;74.622;2022-12-18T04:31:25;243.67;;;106.63;;
52798;SDS011;38667;42.872;74.622;2022-12-18T04:33:51;227.00;;;107.03;;
52798;SDS011;38667;42.872;74.622;2022-12-18T04:36:19;265.17;;;112.07;;
52798;SDS011;38667;42.872;74.622;2022-12-18T04:38:45;210.43;;;92.10;;
52798;SDS011;38667;42.872;74.622;2022-12-18T04:41:11;189.93;;;83.50;;
52798;SDS011;38667;42.872;74.622;2022-12-18T04:43:38;186.60;;;82.43;;
52798;SDS011;38667;42.872;74.622;2022-12-18T04:46:05;190.60;;;84.20;;
52798;SDS011;38667;42.872;74.622;2022-12-18T04:48:32;185.73;;;80.53;;
52798;SDS011;38667;42.872;74.622;2022-12-18T04:50:59;195.33;;;83.20;;
52798;SDS011;38667;42.872;74.622;2022-12-18T04:53:26;198.77;;;83.87;;
52798;SDS011;38667;42.872;74.622;2022-12-18T04:56:01;222.10;;;89.40;;
52798;SDS011;38667;42.872;74.622;2022-12-18T04:58:29;215.47;;;87.70;;
52798;SDS011;38667;42.872;74.622;2022-12-18T05:00:55;188.87;;;78.63;;
52798;SDS011;38667;42.872;74.622;2022-12-18T05:03:21;183.13;;;76.37;;
52798;SDS011;38667;42.872;74.622;2022-12-18T05:05:49;180.63;;;79.57;;
52798;SDS011;38667;42.872;74.622;2022-12-18T05:08:15;169.37;;;81.07;;
52798;SDS011;38667;42.872;74.622;2022-12-18T05:10:43;187.80;;;83.83;;
52798;SDS011;38667;42.872;74.622;2022-12-18T05:13:09;199.67;;;89.80;;
52798;SDS011;38667;42.872;74.622;2022-12-18T05:15:36;188.00;;;84.87;;
52798;SDS011;38667;42.872;74.622;2022-12-18T05:18:02;180.60;;;81.60;;
52798;SDS011;38667;42.872;74.622;2022-12-18T05:20:29;192.70;;;86.10;;
52798;SDS011;38667;42.872;74.622;2022-12-18T05:22:56;204.40;;;88.30;;
52798;SDS011;38667;42.872;74.622;2022-12-18T05:25:22;205.97;;;90.37;;
52798;SDS011;38667;42.872;74.622;2022-12-18T05:27:50;225.43;;;97.40;;
52798;SDS011;38667;42.872;74.622;2022-12-18T05:30:17;205.90;;;92.43;;
52798;SDS011;38667;42.872;74.622;2022-12-18T05:32:43;209.90;;;95.07;;
52798;SDS011;38667;42.872;74.622;2022-12-18T05:35:10;209.43;;;97.03;;
52798;SDS011;38667;42.872;74.622;2022-12-18T05:37:36;211.80;;;94.93;;
52798;SDS011;38667;42.872;74.622;2022-12-18T05:40:03;219.27;;;98.20;;
52798;SDS011;38667;42.872;74.622;2022-12-18T05:42:30;214.50;;;97.17;;
52798;SDS011;38667;42.872;74.622;2022-12-18T05:44:58;221.47;;;100.83;;
52798;SDS011;38667;42.872;74.622;2022-12-18T05:47:24;232.07;;;106.80;;
52798;SDS011;38667;42.872;74.622;2022-12-18T05:49:51;230.47;;;104.83;;
52798;SDS011;38667;42.872;74.622;2022-12-18T05:52:17;210.50;;;102.17;;
52798;SDS011;38667;42.872;74.622;2022-12-18T05:54:44;208.43;;;94.80;;
52798;SDS011;38667;42.872;74.622;2022-12-18T05:57:10;201.80;;;93.37;;
52798;SDS011;38667;42.872;74.622;2022-12-18T05:59:37;195.73;;;92.10;;
52798;SDS011;38667;42.872;74.622;2022-12-18T06:02:05;207.63;;;91.43;;
52798;SDS011;38667;42.872;74.622;2022-12-18T06:04:31;186.27;;;87.77;;
52798;SDS011;38667;42.872;74.622;2022-12-18T06:06:57;187.13;;;84.60;;
52798;SDS011;38667;42.872;74.622;2022-12-18T06:09:24;195.40;;;84.33;;
52798;SDS011;38667;42.872;74.622;2022-12-18T06:11:51;217.17;;;95.77;;
52798;SDS011;38667;42.872;74.622;2022-12-18T06:14:17;188.83;;;85.27;;
52798;SDS011;38667;42.872;74.622;2022-12-18T06:16:44;206.00;;;86.00;;
52798;SDS011;38667;42.872;74.622;2022-12-18T06:19:14;196.80;;;82.33;;
52798;SDS011;38667;42.872;74.622;2022-12-18T06:21:41;207.10;;;83.63;;
52798;SDS011;38667;42.872;74.622;2022-12-18T06:24:07;206.67;;;83.30;;
52798;SDS011;38667;42.872;74.622;2022-12-18T06:26:33;214.93;;;87.63;;
52798;SDS011;38667;42.872;74.622;2022-12-18T06:29:02;208.57;;;86.83;;
52798;SDS011;38667;42.872;74.622;2022-12-18T06:31:29;197.40;;;80.30;;
52798;SDS011;38667;42.872;74.622;2022-12-18T06:33:55;219.97;;;81.73;;
52798;SDS011;38667;42.872;74.622;2022-12-18T06:36:23;209.70;;;81.17;;
52798;SDS011;38667;42.872;74.622;2022-12-18T06:38:49;222.97;;;80.87;;
52798;SDS011;38667;42.872;74.622;2022-12-18T06:41:17;200.93;;;74.67;;
52798;SDS011;38667;42.872;74.622;2022-12-18T06:43:45;178.23;;;70.87;;
52798;SDS011;38667;42.872;74.622;2022-12-18T06:46:12;190.93;;;72.40;;
52798;SDS011;38667;42.872;74.622;2022-12-18T06:48:38;185.47;;;67.07;;
52798;SDS011;38667;42.872;74.622;2022-12-18T06:51:05;162.20;;;66.50;;
52798;SDS011;38667;42.872;74.622;2022-12-18T06:53:33;165.80;;;66.53;;
52798;SDS011;38667;42.872;74.622;2022-12-18T06:56:00;167.87;;;67.50;;
52798;SDS011;38667;42.872;74.622;2022-12-18T06:58:26;165.03;;;69.63;;
52798;SDS011;38667;42.872;74.622;2022-12-18T07:00:53;160.60;;;70.20;;
52798;SDS011;38667;42.872;74.622;2022-12-18T07:03:24;154.53;;;67.20;;
52798;SDS011;38667;42.872;74.622;2022-12-18T07:05:50;142.40;;;61.73;;
52798;SDS011;38667;42.872;74.622;2022-12-18T07:08:16;144.90;;;59.80;;
52798;SDS011;38667;42.872;74.622;2022-12-18T07:10:47;155.03;;;61.30;;
52798;SDS011;38667;42.872;74.622;2022-12-18T07:13:14;154.03;;;59.90;;
52798;SDS011;38667;42.872;74.622;2022-12-18T07:15:40;168.60;;;64.63;;
52798;SDS011;38667;42.872;74.622;2022-12-18T07:18:06;163.83;;;66.67;;
52798;SDS011;38667;42.872;74.622;2022-12-18T07:20:33;185.73;;;68.43;;
52798;SDS011;38667;42.872;74.622;2022-12-18T07:23:01;186.87;;;80.97;;
52798;SDS011;38667;42.872;74.622;2022-12-18T07:25:27;181.43;;;76.07;;
52798;SDS011;38667;42.872;74.622;2022-12-18T07:27:55;165.43;;;77.77;;
52798;SDS011;38667;42.872;74.622;2022-12-18T07:30:22;194.97;;;82.60;;
52798;SDS011;38667;42.872;74.622;2022-12-18T07:32:48;205.50;;;96.07;;
52798;SDS011;38667;42.872;74.622;2022-12-18T07:35:14;234.00;;;110.20;;
52798;SDS011;38667;42.872;74.622;2022-12-18T07:37:41;234.70;;;108.87;;
52798;SDS011;38667;42.872;74.622;2022-12-18T07:40:08;248.37;;;112.20;;
52798;SDS011;38667;42.872;74.622;2022-12-18T07:42:35;257.27;;;123.07;;
52798;SDS011;38667;42.872;74.622;2022-12-18T07:45:03;287.40;;;129.43;;
52798;SDS011;38667;42.872;74.622;2022-12-18T07:47:30;286.73;;;133.87;;
52798;SDS011;38667;42.872;74.622;2022-12-18T07:49:59;295.67;;;133.33;;
52798;SDS011;38667;42.872;74.622;2022-12-18T07:52:25;304.40;;;137.20;;
52798;SDS011;38667;42.872;74.622;2022-12-18T07:54:51;314.13;;;139.73;;
52798;SDS011;38667;42.872;74.622;2022-12-18T07:57:17;306.80;;;143.57;;
52798;SDS011;38667;42.872;74.622;2022-12-18T07:59:44;307.90;;;144.77;;
52798;SDS011;38667;42.872;74.622;2022-12-18T08:02:12;291.73;;;139.83;;
52798;SDS011;38667;42.872;74.622;2022-12-18T08:04:38;293.83;;;134.43;;
52798;SDS011;38667;42.872;74.622;2022-12-18T08:07:04;295.27;;;137.97;;
52798;SDS011;38667;42.872;74.622;2022-12-18T08:09:31;302.87;;;141.07;;
52798;SDS011;38667;42.872;74.622;2022-12-18T08:11:57;287.33;;;134.63;;
52798;SDS011;38667;42.872;74.622;2022-12-18T08:14:26;301.60;;;137.73;;
52798;SDS011;38667;42.872;74.622;2022-12-18T08:16:52;300.17;;;137.07;;
52798;SDS011;38667;42.872;74.622;2022-12-18T08:19:20;300.73;;;140.67;;
52798;SDS011;38667;42.872;74.622;2022-12-18T08:21:47;300.90;;;137.87;;
52798;SDS011;38667;42.872;74.622;2022-12-18T08:24:13;282.00;;;133.27;;
52798;SDS011;38667;42.872;74.622;2022-12-18T08:26:39;288.27;;;133.03;;
52798;SDS011;38667;42.872;74.622;2022-12-18T08:29:05;300.63;;;134.57;;
52798;SDS011;38667;42.872;74.622;2022-12-18T08:31:32;301.43;;;137.67;;
52798;SDS011;38667;42.872;74.622;2022-12-18T08:33:58;295.30;;;134.27;;
52798;SDS011;38667;42.872;74.622;2022-12-18T08:36:26;285.57;;;131.03;;
52798;SDS011;38667;42.872;74.622;2022-12-18T08:38:52;296.80;;;131.63;;
52798;SDS011;38667;42.872;74.622;2022-12-18T08:41:19;251.43;;;117.83;;
52798;SDS011;38667;42.872;74.622;2022-12-18T08:43:46;240.63;;;110.83;;
52798;SDS011;38667;42.872;74.622;2022-12-18T08:46:12;269.57;;;122.73;;
52798;SDS011;38667;42.872;74.622;2022-12-18T08:48:39;288.30;;;124.47;;
52798;SDS011;38667;42.872;74.622;2022-12-18T08:51:06;291.13;;;125.23;;
52798;SDS011;38667;42.872;74.622;2022-12-18T08:53:34;283.10;;;124.07;;
52798;SDS011;38667;42.872;74.622;2022-12-18T08:56:00;281.00;;;121.40;;
52798;SDS011;38667;42.872;74.622;2022-12-18T08:58:26;278.43;;;121.00;;
52798;SDS011;38667;42.872;74.622;2022-12-18T09:00:53;277.20;;;122.47;;
52798;SDS011;38667;42.872;74.622;2022-12-18T09:03:19;278.07;;;122.50;;
52798;SDS011;38667;42.872;74.622;2022-12-18T09:05:46;265.33;;;112.07;;
52798;SDS011;38667;42.872;74.622;2022-12-18T09:08:12;256.23;;;106.60;;
52798;SDS011;38667;42.872;74.622;2022-12-18T09:10:42;251.03;;;109.70;;
52798;SDS011;38667;42.872;74.622;2022-12-18T09:13:09;240.10;;;103.77;;
52798;SDS011;38667;42.872;74.622;2022-12-18T09:15:40;249.70;;;106.80;;
52798;SDS011;38667;42.872;74.622;2022-12-18T09:18:07;225.60;;;100.17;;
52798;SDS011;38667;42.872;74.622;2022-12-18T09:20:33;225.97;;;102.73;;
52798;SDS011;38667;42.872;74.622;2022-12-18T09:23:00;233.83;;;101.47;;
52798;SDS011;38667;42.872;74.622;2022-12-18T09:25:26;211.20;;;93.13;;
52798;SDS011;38667;42.872;74.622;2022-12-18T09:27:55;203.87;;;86.27;;
52798;SDS011;38667;42.872;74.622;2022-12-18T09:30:21;207.33;;;87.73;;
52798;SDS011;38667;42.872;74.622;2022-12-18T09:32:48;212.30;;;86.63;;
52798;SDS011;38667;42.872;74.622;2022-12-18T09:35:14;216.83;;;90.27;;
52798;SDS011;38667;42.872;74.622;2022-12-18T09:37:40;210.20;;;88.90;;
52798;SDS011;38667;42.872;74.622;2022-12-18T09:40:12;152.20;;;64.63;;
52798;SDS011;38667;42.872;74.622;2022-12-18T09:42:39;122.40;;;53.97;;
52798;SDS011;38667;42.872;74.622;2022-12-18T09:45:13;126.97;;;55.00;;
52798;SDS011;38667;42.872;74.622;2022-12-18T09:47:41;124.70;;;52.17;;
52798;SDS011;38667;42.872;74.622;2022-12-18T09:50:15;130.93;;;53.30;;
52798;SDS011;38667;42.872;74.622;2022-12-18T09:52:50;116.50;;;53.00;;
52798;SDS011;38667;42.872;74.622;2022-12-18T09:55:21;117.30;;;54.13;;
52798;SDS011;38667;42.872;74.622;2022-12-18T09:57:51;127.40;;;55.47;;
52798;SDS011;38667;42.872;74.622;2022-12-18T10:00:23;132.90;;;55.80;;
52798;SDS011;38667;42.872;74.622;2022-12-18T10:02:50;137.93;;;57.67;;
52798;SDS011;38667;42.872;74.622;2022-12-18T10:05:20;141.93;;;59.47;;
52798;SDS011;38667;42.872;74.622;2022-12-18T10:07:55;141.77;;;57.70;;
52798;SDS011;38667;42.872;74.622;2022-12-18T10:10:31;144.83;;;58.67;;
52798;SDS011;38667;42.872;74.622;2022-12-18T10:13:05;133.27;;;58.17;;
52798;SDS011;38667;42.872;74.622;2022-12-18T10:15:43;137.67;;;59.73;;
52798;SDS011;38667;42.872;74.622;2022-12-18T10:18:20;133.53;;;57.90;;
52798;SDS011;38667;42.872;74.622;2022-12-18T10:20:56;130.43;;;58.80;;
52798;SDS011;38667;42.872;74.622;2022-12-18T10:23:29;134.70;;;62.03;;
52798;SDS011;38667;42.872;74.622;2022-12-18T10:26:00;159.20;;;65.20;;
52798;SDS011;38667;42.872;74.622;2022-12-18T10:28:29;143.43;;;63.57;;
52798;SDS011;38667;42.872;74.622;2022-12-18T10:30:58;149.30;;;67.47;;
52798;SDS011;38667;42.872;74.622;2022-12-18T10:33:28;156.63;;;67.47;;
52798;SDS011;38667;42.872;74.622;2022-12-18T10:35:55;171.83;;;73.90;;
52798;SDS011;38667;42.872;74.622;2022-12-18T10:38:22;167.23;;;75.00;;
52798;SDS011;38667;42.872;74.622;2022-12-18T10:40:52;174.97;;;78.17;;
52798;SDS011;38667;42.872;74.622;2022-12-18T10:43:20;171.80;;;76.43;;
52798;SDS011;38667;42.872;74.622;2022-12-18T10:46:04;189.93;;;85.63;;
52798;SDS011;38667;42.872;74.622;2022-12-18T10:48:52;206.27;;;91.77;;
52798;SDS011;38667;42.872;74.622;2022-12-18T10:51:21;199.70;;;94.23;;
52798;SDS011;38667;42.872;74.622;2022-12-18T10:53:54;215.90;;;98.23;;
52798;SDS011;38667;42.872;74.622;2022-12-18T10:56:22;213.50;;;101.20;;
52798;SDS011;38667;42.872;74.622;2022-12-18T10:58:55;218.83;;;99.97;;
52798;SDS011;38667;42.872;74.622;2022-12-18T11:01:25;224.87;;;103.93;;
52798;SDS011;38667;42.872;74.622;2022-12-18T11:03:59;221.50;;;104.87;;
52798;SDS011;38667;42.872;74.622;2022-12-18T11:06:27;225.47;;;104.97;;
52798;SDS011;38667;42.872;74.622;2022-12-18T11:08:57;223.83;;;104.73;;
52798;SDS011;38667;42.872;74.622;2022-12-18T11:11:25;220.90;;;106.17;;
52798;SDS011;38667;42.872;74.622;2022-12-18T11:13:55;218.33;;;103.13;;
52798;SDS011;38667;42.872;74.622;2022-12-18T11:16:27;227.93;;;104.43;;
52798;SDS011;38667;42.872;74.622;2022-12-18T11:18:59;236.17;;;109.43;;
52798;SDS011;38667;42.872;74.622;2022-12-18T11:21:44;231.93;;;111.83;;
52798;SDS011;38667;42.872;74.622;2022-12-18T11:24:15;250.07;;;113.13;;
52798;SDS011;38667;42.872;74.622;2022-12-18T11:26:48;247.33;;;114.80;;
52798;SDS011;38667;42.872;74.622;2022-12-18T11:29:16;258.57;;;117.17;;
52798;SDS011;38667;42.872;74.622;2022-12-18T11:31:49;298.77;;;139.13;;
52798;SDS011;38667;42.872;74.622;2022-12-18T11:34:16;368.10;;;168.30;;
52798;SDS011;38667;42.872;74.622;2022-12-18T11:36:51;383.60;;;179.70;;
52798;SDS011;38667;42.872;74.622;2022-12-18T11:39:19;398.27;;;186.80;;
52798;SDS011;38667;42.872;74.622;2022-12-18T11:41:52;408.67;;;192.90;;
52798;SDS011;38667;42.872;74.622;2022-12-18T11:44:25;409.87;;;189.30;;
52798;SDS011;38667;42.872;74.622;2022-12-18T11:46:56;404.67;;;190.87;;
52798;SDS011;38667;42.872;74.622;2022-12-18T11:49:28;408.47;;;186.50;;
52798;SDS011;38667;42.872;74.622;2022-12-18T11:51:58;387.53;;;183.30;;
52798;SDS011;38667;42.872;74.622;2022-12-18T11:54:29;365.57;;;171.07;;
52798;SDS011;38667;42.872;74.622;2022-12-18T11:56:56;368.17;;;165.30;;
52798;SDS011;38667;42.872;74.622;2022-12-18T11:59:32;373.40;;;165.30;;
52798;SDS011;38667;42.872;74.622;2022-12-18T12:02:14;370.87;;;171.73;;
52798;SDS011;38667;42.872;74.622;2022-12-18T12:04:57;373.33;;;170.00;;
52798;SDS011;38667;42.872;74.622;2022-12-18T12:07:42;380.20;;;173.97;;
52798;SDS011;38667;42.872;74.622;2022-12-18T12:10:22;414.93;;;186.37;;
52798;SDS011;38667;42.872;74.622;2022-12-18T12:12:58;400.97;;;182.10;;
52798;SDS011;38667;42.872;74.622;2022-12-18T12:15:36;404.07;;;180.90;;
52798;SDS011;38667;42.872;74.622;2022-12-18T12:18:13;413.33;;;184.20;;
52798;SDS011;38667;42.872;74.622;2022-12-18T12:20:49;409.97;;;185.70;;
52798;SDS011;38667;42.872;74.622;2022-12-18T12:23:27;401.80;;;179.47;;
52798;SDS011;38667;42.872;74.622;2022-12-18T12:26:06;410.00;;;184.67;;
52798;SDS011;38667;42.872;74.622;2022-12-18T12:28:40;397.43;;;185.20;;
52798;SDS011;38667;42.872;74.622;2022-12-18T12:31:47;424.47;;;194.27;;
52798;SDS011;38667;42.872;74.622;2022-12-18T12:34:26;431.00;;;199.43;;
52798;SDS011;38667;42.872;74.622;2022-12-18T12:37:03;441.97;;;203.77;;
52798;SDS011;38667;42.872;74.622;2022-12-18T12:39:41;456.07;;;209.80;;
52798;SDS011;38667;42.872;74.622;2022-12-18T12:42:12;464.40;;;216.97;;
52798;SDS011;38667;42.872;74.622;2022-12-18T12:44:43;441.70;;;208.23;;
52798;SDS011;38667;42.872;74.622;2022-12-18T12:47:16;390.73;;;180.93;;
52798;SDS011;38667;42.872;74.622;2022-12-18T12:49:47;407.63;;;181.33;;
52798;SDS011;38667;42.872;74.622;2022-12-18T12:52:15;403.33;;;190.00;;
52798;SDS011;38667;42.872;74.622;2022-12-18T12:54:46;393.73;;;180.07;;
52798;SDS011;38667;42.872;74.622;2022-12-18T12:57:14;400.93;;;180.20;;
52798;SDS011;38667;42.872;74.622;2022-12-18T12:59:47;407.67;;;184.40;;
52798;SDS011;38667;42.872;74.622;2022-12-18T13:02:19;433.33;;;195.27;;
52798;SDS011;38667;42.872;74.622;2022-12-18T13:04:52;426.33;;;186.23;;
52798;SDS011;38667;42.872;74.622;2022-12-18T13:07:24;428.10;;;190.90;;
52798;SDS011;38667;42.872;74.622;2022-12-18T13:10:14;431.03;;;189.30;;
52798;SDS011;38667;42.872;74.622;2022-12-18T13:12:54;406.37;;;181.13;;
52798;SDS011;38667;42.872;74.622;2022-12-18T13:15:21;406.30;;;183.50;;
52798;SDS011;38667;42.872;74.622;2022-12-18T13:18:02;415.30;;;181.20;;
52798;SDS011;38667;42.872;74.622;2022-12-18T13:20:38;411.67;;;187.87;;
52798;SDS011;38667;42.872;74.622;2022-12-18T13:23:19;419.50;;;191.47;;
52798;SDS011;38667;42.872;74.622;2022-12-18T13:25:54;509.80;;;251.53;;
52798;SDS011;38667;42.872;74.622;2022-12-18T13:28:21;547.13;;;285.43;;
52798;SDS011;38667;42.872;74.622;2022-12-18T13:30:50;587.50;;;314.07;;
52798;SDS011;38667;42.872;74.622;2022-12-18T13:36:27;577.63;;;297.57;;
52798;SDS011;38667;42.872;74.622;2022-12-18T13:41:46;632.93;;;330.87;;
52798;SDS011;38667;42.872;74.622;2022-12-18T13:44:20;652.00;;;339.27;;
52798;SDS011;38667;42.872;74.622;2022-12-18T13:46:55;673.73;;;332.70;;
52798;SDS011;38667;42.872;74.622;2022-12-18T13:49:23;670.60;;;332.67;;
52798;SDS011;38667;42.872;74.622;2022-12-18T13:51:55;595.13;;;298.30;;
52798;SDS011;38667;42.872;74.622;2022-12-18T13:54:24;606.90;;;301.50;;
52798;SDS011;38667;42.872;74.622;2022-12-18T13:57:00;548.27;;;271.67;;
52798;SDS011;38667;42.872;74.622;2022-12-18T13:59:32;600.00;;;300.87;;
52798;SDS011;38667;42.872;74.622;2022-12-18T14:02:00;588.77;;;298.67;;
52798;SDS011;38667;42.872;74.622;2022-12-18T14:04:33;601.97;;;286.37;;
52798;SDS011;38667;42.872;74.622;2022-12-18T14:07:03;577.70;;;282.17;;
52798;SDS011;38667;42.872;74.622;2022-12-18T14:09:34;587.97;;;292.17;;